Time;durP1;ratioP1;P1;durP2;ratioP2;P2;SDS_P1;SDS_P2;PMS_P1;PMS_P2;Temp;Humidity;BMP_temperature;BMP_pressure;BME280_temperature;BME280_humidity;BME280_pressure;Samples;Min_cycle;Max_cycle;Signal;HPM_P1;HPM_P2
2023/01/03 00:01:26;;;;;;;;;;;;;;;6.84;100.00;101290.75;5554584;32;34827;-72
2023/01/03 00:04:32;;;;;;;;;;;;;;;6.75;100.00;101283.56;5567968;32;34913;-73
2023/01/03 00:07:38;;;;;;;;;;;;;;;6.82;100.00;101284.78;5553780;32;33718;-73
2023/01/03 00:10:48;;;;;;;;;;;;;;;6.75;100.00;101280.09;5567832;32;34874;-72
2023/01/03 00:13:54;;;;;;;;;;;;;;;6.75;100.00;101290.63;5567714;32;35039;-72
2023/01/03 00:17:01;;;;;;;;;;;;;;;6.78;100.00;101301.78;5553821;32;33142;-72
2023/01/03 00:20:10;;;;;;;;;;;;;;;6.75;100.00;101302.03;5567879;32;33636;-72
2023/01/03 00:23:17;;;;;;;;;;;;;;;6.61;100.00;101296.16;5567743;32;34168;-73
2023/01/03 00:26:26;;;;;;;;;;;;;;;6.59;100.00;101300.69;5567785;32;34315;-72
2023/01/03 00:29:36;;;;;;;;;;;;;;;6.48;100.00;101302.41;5567693;32;34804;-73
2023/01/03 00:32:44;;;;;;;;;;;;;;;6.45;100.00;101309.69;5554595;32;34604;-72
2023/01/03 00:35:50;;;;;;;;;;;;;;;6.48;100.00;101314.72;5541021;32;34053;-72
2023/01/03 00:39:01;;;;;;;;;;;;;;;6.44;100.00;101316.75;5567709;32;34100;-72
2023/01/03 00:42:08;;;;;;;;;;;;;;;6.62;100.00;101316.28;5553609;32;33351;-72
2023/01/03 00:45:14;;;;;;;;;;;;;;;6.50;100.00;101320.72;5567574;32;34266;-72
2023/01/03 00:48:26;;;;;;;;;;;;;;;6.51;100.00;101328.50;5567462;32;34841;-72
2023/01/03 00:51:33;;;;;;;;;;;;;;;6.41;100.00;101326.69;5554175;32;34015;-72
2023/01/03 00:54:44;;;;;;;;;;;;;;;6.43;100.00;101319.53;5567094;32;34882;-72
2023/01/03 00:57:50;;;;;;;;;;;;;;;6.31;100.00;101323.91;5567609;32;34834;-73
2023/01/03 01:01:05;;;;;;;;;;;;;;;6.35;100.00;101327.16;5553235;32;32750;-72
2023/01/03 01:04:15;;;;;;;;;;;;;;;6.37;100.00;101326.09;5540913;32;34319;-72
2023/01/03 01:07:23;;;;;;;;;;;;;;;6.41;100.00;101334.59;5553861;32;34725;-72
2023/01/03 01:10:41;;;;;;;;;;;;;;;6.40;100.00;101333.75;5567116;32;34905;-72
2023/01/03 01:13:48;;;;;;;;;;;;;;;6.46;100.00;101330.66;5552841;32;32706;-71
2023/01/03 01:17:00;;;;;;;;;;;;;;;6.45;100.00;101328.13;5567013;32;34318;-72
2023/01/03 01:20:09;;;;;;;;;;;;;;;6.58;100.00;101334.16;5553180;32;32739;-72
2023/01/03 01:23:19;;;;;;;;;;;;;;;6.59;100.00;101330.53;5566938;32;34179;-72
2023/01/03 01:26:27;;;;;;;;;;;;;;;6.63;100.00;101332.00;5552539;32;32918;-72
2023/01/03 01:29:34;;;;;;;;;;;;;;;6.70;100.00;101330.56;5566763;32;34289;-72
2023/01/03 01:32:44;;;;;;;;;;;;;;;6.68;100.00;101334.28;5553751;32;34032;-72
2023/01/03 01:35:52;;;;;;;;;;;;;;;6.53;100.00;101329.22;5566721;32;34745;-72
2023/01/03 01:39:04;;;;;;;;;;;;;;;6.60;100.00;101328.75;5552930;32;33349;-71
2023/01/03 01:45:38;;;;;;;;;;;;;;;6.66;100.00;101329.13;5566482;32;34327;-73
2023/01/03 01:48:48;;;;;;;;;;;;;;;6.69;100.00;101323.59;5566446;32;35054;-73
2023/01/03 01:51:59;;;;;;;;;;;;;;;6.65;100.00;101323.94;5566343;32;34114;-73
2023/01/03 01:55:07;;;;;;;;;;;;;;;6.59;100.00;101324.41;5552913;32;34283;-74
2023/01/03 01:58:20;;;;;;;;;;;;;;;6.59;100.00;101329.69;5553429;32;34212;-73
2023/01/03 02:01:28;;;;;;;;;;;;;;;6.48;100.00;101336.66;5552885;32;34303;-72
2023/01/03 02:04:37;;;;;;;;;;;;;;;6.36;100.00;101337.59;5552404;32;32903;-73
2023/01/03 02:07:50;;;;;;;;;;;;;;;6.45;100.00;101347.41;5568798;32;34152;-72
2023/01/03 02:10:57;;;;;;;;;;;;;;;6.34;100.00;101343.94;5568941;32;34383;-72
2023/01/03 02:14:30;;;;;;;;;;;;;;;6.24;100.00;101337.69;5554853;32;33839;-73
2023/01/03 02:17:41;;;;;;;;;;;;;;;6.38;100.00;101342.75;5549869;32;33983;-72
2023/01/03 02:20:56;;;;;;;;;;;;;;;6.25;100.00;101342.81;5568808;32;35075;-73
2023/01/03 02:24:14;;;;;;;;;;;;;;;6.22;100.00;101340.44;5569095;32;34561;-72
2023/01/03 02:27:41;;;;;;;;;;;;;;;6.28;100.00;101339.13;5568904;32;34393;-73
2023/01/03 02:30:54;;;;;;;;;;;;;;;6.15;100.00;101339.22;5568838;32;34294;-73
2023/01/03 02:34:15;;;;;;;;;;;;;;;6.20;100.00;101333.59;5568890;32;34373;-74
2023/01/03 02:37:41;;;;;;;;;;;;;;;6.19;100.00;101332.78;5568895;32;34120;-74
2023/01/03 02:40:56;;;;;;;;;;;;;;;6.16;100.00;101346.16;5554651;32;33956;-73
2023/01/03 02:44:05;;;;;;;;;;;;;;;6.12;100.00;101342.09;5568852;32;33937;-74
2023/01/03 02:47:14;;;;;;;;;;;;;;;6.03;100.00;101343.62;5568680;32;34242;-74
2023/01/03 02:50:23;;;;;;;;;;;;;;;6.10;100.00;101357.16;5568596;32;34324;-73
2023/01/03 02:53:33;;;;;;;;;;;;;;;6.14;100.00;101353.38;5554354;32;34356;-74
2023/01/03 02:56:45;;;;;;;;;;;;;;;6.10;100.00;101346.63;5555379;32;34570;-73
2023/01/03 03:00:02;;;;;;;;;;;;;;;6.08;100.00;101353.81;5568512;32;34392;-73
2023/01/03 03:03:13;;;;;;;;;;;;;;;6.03;100.00;101350.69;5568493;32;34731;-73
2023/01/03 03:06:27;;;;;;;;;;;;;;;6.04;100.00;101361.12;5568861;32;33845;-74
2023/01/03 03:13:11;;;;;;;;;;;;;;;5.98;100.00;101351.03;5568398;32;34167;-73
2023/01/03 03:13:14;;;;;;;;;;;;;;;6.08;100.00;101346.75;5568326;32;34369;-72
2023/01/03 03:26:49;;;;;;;;;;;;;;;6.08;100.00;101340.66;5568149;32;34586;-73
2023/01/03 03:29:57;;;;;;;;;;;;;;;6.05;100.00;101349.59;5554620;32;34061;-74
2023/01/03 03:33:07;;;;;;;;;;;;;;;6.07;100.00;101352.13;5567694;32;33876;-72
2023/01/03 03:36:13;;;;;;;;;;;;;;;6.07;100.00;101345.06;5568212;32;34159;-73
2023/01/03 03:46:26;;;;;;;;;;;;;;;6.16;100.00;101359.34;5568162;32;33890;-73
2023/01/03 03:49:39;;;;;;;;;;;;;;;6.14;100.00;101353.38;5541816;32;32954;-72
2023/01/03 03:52:50;;;;;;;;;;;;;;;6.14;100.00;101352.53;5568045;32;34563;-72
2023/01/03 03:56:04;;;;;;;;;;;;;;;5.99;100.00;101351.87;5555092;32;34518;-73
2023/01/03 03:59:13;;;;;;;;;;;;;;;5.91;100.00;101354.22;5567983;32;34471;-72
2023/01/03 04:02:21;;;;;;;;;;;;;;;5.76;100.00;101358.78;5567978;32;34261;-73
2023/01/03 04:05:31;;;;;;;;;;;;;;;5.68;100.00;101356.75;5554376;32;34825;-72
2023/01/03 04:08:36;;;;;;;;;;;;;;;5.61;100.00;101354.69;5509552;32;1403133;-73
2023/01/03 04:11:44;;;;;;;;;;;;;;;5.66;100.00;101360.44;5567911;32;34916;-72
2023/01/03 04:14:51;;;;;;;;;;;;;;;5.43;100.00;101359.47;5567887;32;33972;-73
2023/01/03 04:17:57;;;;;;;;;;;;;;;5.22;100.00;101358.41;5554502;32;34855;-73
2023/01/03 04:21:04;;;;;;;;;;;;;;;5.11;100.00;101355.69;5553750;32;32234;-72
2023/01/03 04:24:15;;;;;;;;;;;;;;;5.22;100.00;101355.78;5567787;32;35439;-72
2023/01/03 04:27:22;;;;;;;;;;;;;;;5.10;100.00;101356.63;5567696;32;34244;-72
2023/01/03 04:30:34;;;;;;;;;;;;;;;5.10;100.00;101365.34;5566864;32;34708;-73
2023/01/03 04:33:42;;;;;;;;;;;;;;;5.14;100.00;101364.19;5567455;32;34969;-73
2023/01/03 04:36:50;;;;;;;;;;;;;;;5.13;100.00;101367.75;5567563;32;34726;-73
2023/01/03 04:39:56;;;;;;;;;;;;;;;5.06;100.00;101370.94;5554086;32;35208;-73
2023/01/03 04:46:31;;;;;;;;;;;;;;;4.85;100.00;101361.91;5567552;32;34726;-73
2023/01/03 04:49:39;;;;;;;;;;;;;;;4.80;100.00;101367.50;5554312;32;34911;-73
2023/01/03 04:52:46;;;;;;;;;;;;;;;4.84;100.00;101370.78;5553700;32;34608;-72
2023/01/03 04:55:55;;;;;;;;;;;;;;;4.63;100.00;101368.69;5567426;32;34738;-73
2023/01/03 04:59:03;;;;;;;;;;;;;;;4.62;100.00;101364.38;5567345;32;34457;-72
2023/01/03 05:02:10;;;;;;;;;;;;;;;4.56;100.00;101370.03;5553078;32;33153;-72
2023/01/03 05:05:15;;;;;;;;;;;;;;;4.51;100.00;101369.50;5567137;32;34151;-72
2023/01/03 05:08:23;;;;;;;;;;;;;;;4.46;100.00;101376.88;5554723;32;34155;-72
2023/01/03 05:11:30;;;;;;;;;;;;;;;4.44;100.00;101375.31;5567029;32;34357;-74
2023/01/03 05:14:40;;;;;;;;;;;;;;;4.49;100.00;101381.09;5566912;32;34233;-74
2023/01/03 05:17:47;;;;;;;;;;;;;;;4.33;100.00;101387.38;5553357;32;34921;-74
2023/01/03 05:27:57;;;;;;;;;;;;;;;4.05;100.00;101399.81;5566671;32;34216;-72
2023/01/03 05:31:07;;;;;;;;;;;;;;;4.12;100.00;101401.09;5566733;32;34076;-74
2023/01/03 05:34:14;;;;;;;;;;;;;;;4.06;100.00;101412.87;5567567;32;34278;-73
2023/01/03 05:37:23;;;;;;;;;;;;;;;4.03;100.00;101409.56;5553026;32;32821;-73
2023/01/03 05:40:34;;;;;;;;;;;;;;;4.00;100.00;101417.66;5567175;32;34887;-72
2023/01/03 05:43:48;;;;;;;;;;;;;;;3.94;100.00;101418.91;5556325;32;34382;-74
2023/01/03 05:46:55;;;;;;;;;;;;;;;3.96;100.00;101421.44;5569083;32;34844;-73
2023/01/03 05:50:04;;;;;;;;;;;;;;;3.91;100.00;101416.47;5555166;32;34845;-72
2023/01/03 05:53:19;;;;;;;;;;;;;;;3.92;100.00;101432.12;5568009;32;34167;-72
2023/01/03 05:56:25;;;;;;;;;;;;;;;4.04;100.00;101430.50;5569290;32;33966;-72
2023/01/03 05:59:34;;;;;;;;;;;;;;;3.93;100.00;101441.69;5555095;32;32943;-73
2023/01/03 06:02:42;;;;;;;;;;;;;;;4.01;100.00;101435.94;5569227;32;34330;-73
2023/01/03 06:05:54;;;;;;;;;;;;;;;3.96;100.00;101439.81;5567587;32;34887;-73
2023/01/03 06:09:00;;;;;;;;;;;;;;;4.13;100.00;101427.25;5568584;32;34264;-73
2023/01/03 06:12:07;;;;;;;;;;;;;;;4.23;100.00;101430.13;5568516;32;34381;-73
2023/01/03 06:15:14;;;;;;;;;;;;;;;4.15;100.00;101425.38;5568820;32;34287;-74
2023/01/03 06:18:23;;;;;;;;;;;;;;;4.08;100.00;101434.59;5568984;32;34950;-74
2023/01/03 06:21:32;;;;;;;;;;;;;;;4.18;100.00;101429.56;5568979;32;35049;-73
2023/01/03 06:24:39;;;;;;;;;;;;;;;4.21;100.00;101438.09;5555620;32;34188;-74
2023/01/03 06:27:48;;;;;;;;;;;;;;;4.27;100.00;101437.69;5568910;32;34247;-74
2023/01/03 06:30:57;;;;;;;;;;;;;;;4.23;100.00;101438.00;5568568;32;34907;-73
2023/01/03 06:34:05;;;;;;;;;;;;;;;4.14;100.00;101436.81;5568952;32;34116;-73
2023/01/03 06:37:11;;;;;;;;;;;;;;;4.16;100.00;101439.34;5568646;32;34807;-74
2023/01/03 06:40:18;;;;;;;;;;;;;;;4.11;100.00;101446.69;5554824;32;34807;-74
2023/01/03 06:43:26;;;;;;;;;;;;;;;4.17;100.00;101449.75;5568563;32;34314;-74
2023/01/03 06:53:23;;;;;;;;;;;;;;;5.33;100.00;101454.94;5566981;32;34263;-74
2023/01/03 06:56:31;;;;;;;;;;;;;;;5.48;100.00;101465.25;5554799;32;33540;-74
2023/01/03 06:59:37;;;;;;;;;;;;;;;5.57;100.00;101469.00;5567186;32;34147;-74
2023/01/03 07:02:44;;;;;;;;;;;;;;;5.61;100.00;101481.03;5560710;32;34282;-74
2023/01/03 07:05:51;;;;;;;;;;;;;;;5.71;100.00;101482.06;5568482;32;34280;-74
2023/01/03 07:09:00;;;;;;;;;;;;;;;5.74;100.00;101478.34;5534582;32;34842;-74
2023/01/03 07:15:33;;;;;;;;;;;;;;;5.95;100.00;101480.31;5532946;32;34646;-74
2023/01/03 07:18:40;;;;;;;;;;;;;;;6.04;100.00;101481.44;5548204;32;34926;-73
2023/01/03 07:21:47;;;;;;;;;;;;;;;6.09;100.00;101493.34;5547868;32;34175;-73
2023/01/03 07:24:54;;;;;;;;;;;;;;;6.18;100.00;101491.81;5547753;32;34662;-73
2023/01/03 07:28:05;;;;;;;;;;;;;;;6.24;100.00;101491.37;5547293;32;35735;-72
2023/01/03 07:31:14;;;;;;;;;;;;;;;6.29;100.00;101491.03;5555063;32;35005;-73
2023/01/03 07:34:20;;;;;;;;;;;;;;;6.36;100.00;101489.59;5554569;32;34849;-73
2023/01/03 07:37:23;;;;;;;;;;;;;;;6.54;100.00;101482.94;5567800;32;34062;-74
2023/01/03 07:40:31;;;;;;;;;;;;;;;6.67;100.00;101496.91;5540073;32;33986;-73
2023/01/03 07:43:38;;;;;;;;;;;;;;;6.79;100.00;101501.25;5567222;32;34956;-72
2023/01/03 07:46:42;;;;;;;;;;;;;;;6.95;100.00;101501.78;5568129;32;34278;-73
2023/01/03 07:49:47;;;;;;;;;;;;;;;6.98;100.00;101503.31;5567802;32;34589;-74
2023/01/03 07:52:56;;;;;;;;;;;;;;;6.94;100.00;101492.19;5554377;32;34361;-73
2023/01/03 07:56:03;;;;;;;;;;;;;;;6.96;100.00;101510.53;5548347;32;34034;-72
2023/01/03 07:59:15;;;;;;;;;;;;;;;7.07;100.00;101513.16;5547399;32;33498;-74
2023/01/03 08:02:21;;;;;;;;;;;;;;;7.22;100.00;101519.06;5552037;32;34082;-73
2023/01/03 08:05:29;;;;;;;;;;;;;;;7.25;100.00;101521.50;5552534;32;35828;-73
2023/01/03 08:08:33;;;;;;;;;;;;;;;7.32;100.00;101518.25;5547384;32;34033;-74
2023/01/03 08:15:03;;;;;;;;;;;;;;;7.43;100.00;101534.09;5548161;32;34249;-73
2023/01/03 08:18:07;;;;;;;;;;;;;;;7.43;100.00;101527.97;5547344;32;34302;-73
2023/01/03 08:21:13;;;;;;;;;;;;;;;7.40;100.00;101528.22;5547411;32;34296;-74
2023/01/03 08:24:19;;;;;;;;;;;;;;;7.47;100.00;101536.50;5548052;32;34368;-74
2023/01/03 08:27:24;;;;;;;;;;;;;;;7.44;100.00;101545.50;5546942;32;34459;-74
2023/01/03 08:30:35;;;;;;;;;;;;;;;7.45;100.00;101541.06;5547967;32;34720;-74
2023/01/03 08:33:42;;;;;;;;;;;;;;;7.47;100.00;101547.91;5548062;32;34285;-74
2023/01/03 08:36:48;;;;;;;;;;;;;;;7.50;100.00;101552.97;5547316;32;33834;-74
2023/01/03 08:39:56;;;;;;;;;;;;;;;7.51;100.00;101553.78;5547856;32;33795;-73
2023/01/03 08:43:05;;;;;;;;;;;;;;;7.49;100.00;101539.88;5534371;32;34569;-74
2023/01/03 08:46:12;;;;;;;;;;;;;;;7.66;100.00;101534.09;5547184;32;33321;-73
2023/01/03 08:49:18;;;;;;;;;;;;;;;7.73;100.00;101543.22;5547227;32;34903;-73
2023/01/03 08:52:22;;;;;;;;;;;;;;;7.73;100.00;101535.31;5547923;32;34832;-73
2023/01/03 08:55:28;;;;;;;;;;;;;;;7.64;100.00;101549.22;5546070;32;33740;-73
2023/01/03 08:58:32;;;;;;;;;;;;;;;7.69;100.00;101550.56;5533945;32;33263;-74
2023/01/03 09:01:37;;;;;;;;;;;;;;;7.57;100.00;101561.22;5546365;32;34483;-76
2023/01/03 09:04:42;;;;;;;;;;;;;;;7.62;100.00;101559.91;5547852;32;34357;-73
2023/01/03 09:07:46;;;;;;;;;;;;;;;7.68;100.00;101569.16;5549901;32;34729;-72
2023/01/03 09:10:54;;;;;;;;;;;;;;;7.60;100.00;101555.72;5566930;32;34244;-73
2023/01/03 09:13:59;;;;;;;;;;;;;;;7.69;100.00;101568.19;5553531;32;35163;-73
2023/01/03 09:17:02;;;;;;;;;;;;;;;7.70;100.00;101564.56;5559196;32;34057;-73
2023/01/03 09:20:07;;;;;;;;;;;;;;;7.62;100.00;101559.06;5573465;32;33688;-73
2023/01/03 09:23:11;;;;;;;;;;;;;;;7.68;100.00;101566.50;5559748;32;34735;-76
2023/01/03 09:26:15;;;;;;;;;;;;;;;7.78;100.00;101568.31;5559650;32;34200;-72
2023/01/03 09:29:19;;;;;;;;;;;;;;;7.79;100.00;101563.88;5558807;32;33006;-73
2023/01/03 09:32:23;;;;;;;;;;;;;;;7.57;100.00;101567.34;5573296;32;34427;-73
2023/01/03 09:35:28;;;;;;;;;;;;;;;7.73;100.00;101567.84;5558831;32;34874;-72
2023/01/03 09:38:34;;;;;;;;;;;;;;;7.73;100.00;101570.47;5572823;32;33939;-72
2023/01/03 09:41:39;;;;;;;;;;;;;;;7.71;100.00;101567.09;5533939;32;32826;-73
2023/01/03 09:44:45;;;;;;;;;;;;;;;7.78;100.00;101570.97;5558880;32;34543;-73
2023/01/03 09:47:50;;;;;;;;;;;;;;;7.81;100.00;101575.16;5572412;32;34758;-73
2023/01/03 09:50:57;;;;;;;;;;;;;;;7.94;100.00;101569.75;5572320;32;34708;-74
2023/01/03 10:05:05;;;;;;;;;;;;;;;8.28;100.00;101558.97;5571462;32;34376;-74
2023/01/03 10:08:14;;;;;;;;;;;;;;;8.53;100.00;101560.50;5572030;32;34238;-75
2023/01/03 10:11:26;;;;;;;;;;;;;;;8.47;100.00;101555.69;5558865;32;34779;-74
2023/01/03 10:14:58;;;;;;;;;;;;;;;8.70;100.00;101559.13;5533324;32;34490;-75
2023/01/03 10:18:25;;;;;;;;;;;;;;;8.66;100.00;101561.19;5546044;32;34642;-75
2023/01/03 10:21:39;;;;;;;;;;;;;;;8.30;100.00;101564.19;5558950;32;32711;-73
2023/01/03 10:24:49;;;;;;;;;;;;;;;8.67;100.00;101562.00;5558063;32;32709;-74
2023/01/03 10:28:00;;;;;;;;;;;;;;;8.77;100.00;101567.38;5542000;32;33199;-75
2023/01/03 10:31:08;;;;;;;;;;;;;;;8.91;100.00;101565.25;5568740;32;34243;-75
2023/01/03 10:34:13;;;;;;;;;;;;;;;8.91;100.00;101559.13;5554474;32;33440;-74
2023/01/03 10:37:18;;;;;;;;;;;;;;;8.70;100.00;101561.75;5568527;32;34619;-76
2023/01/03 10:40:41;;;;;;;;;;;;;;;8.82;100.00;101558.09;5568417;32;34876;-74
2023/01/03 10:44:00;;;;;;;;;;;;;;;8.82;100.00;101557.25;5568202;32;33102;-75
2023/01/03 10:47:10;;;;;;;;;;;;;;;8.59;100.00;101567.09;5554325;32;33605;-74
2023/01/03 10:50:21;;;;;;;;;;;;;;;8.69;100.00;101558.28;5568137;32;34250;-74
2023/01/03 10:53:25;;;;;;;;;;;;;;;8.77;100.00;101547.03;5554036;32;33442;-76
2023/01/03 10:56:29;;;;;;;;;;;;;;;8.83;100.00;101541.25;5567622;32;33961;-75
2023/01/03 10:59:33;;;;;;;;;;;;;;;9.00;100.00;101547.78;5541449;32;35238;-74
2023/01/03 11:02:43;;;;;;;;;;;;;;;9.13;100.00;101546.63;5566998;32;34110;-75
2023/01/03 11:05:56;;;;;;;;;;;;;;;9.16;100.00;101537.56;5567482;32;33488;-75
2023/01/03 11:09:02;;;;;;;;;;;;;;;8.92;100.00;101537.81;5567877;32;34919;-75
2023/01/03 11:12:18;;;;;;;;;;;;;;;9.08;100.00;101537.38;5567775;32;34781;-73
2023/01/03 11:15:32;;;;;;;;;;;;;;;9.09;100.00;101520.53;5568081;32;34290;-75
2023/01/03 11:18:42;;;;;;;;;;;;;;;9.24;100.00;101521.03;5567096;32;34352;-75
2023/01/03 11:21:47;;;;;;;;;;;;;;;8.90;100.00;101515.13;5554441;32;35858;-74
2023/01/03 11:24:57;;;;;;;;;;;;;;;9.20;100.00;101533.69;5566716;32;34432;-74
2023/01/03 11:28:00;;;;;;;;;;;;;;;9.32;100.00;101523.84;5567463;32;33960;-74
2023/01/03 11:31:27;;;;;;;;;;;;;;;9.41;100.00;101523.06;5568025;32;34937;-73
2023/01/03 11:34:59;;;;;;;;;;;;;;;9.51;100.00;101524.78;5559588;32;33917;-73
2023/01/03 11:38:26;;;;;;;;;;;;;;;9.35;100.00;101534.16;5553365;31;34108;-74
2023/01/03 11:41:36;;;;;;;;;;;;;;;9.43;100.00;101529.91;5567075;32;33263;-73
2023/01/03 11:44:56;;;;;;;;;;;;;;;9.51;100.00;101523.94;5568241;32;34186;-74
2023/01/03 11:48:02;;;;;;;;;;;;;;;9.43;100.00;101524.63;5566711;32;34373;-74
2023/01/03 11:51:15;;;;;;;;;;;;;;;9.53;100.00;101522.00;5568129;32;34891;-74
2023/01/03 11:54:35;;;;;;;;;;;;;;;9.68;100.00;101520.69;5566734;32;34861;-73
2023/01/03 11:58:15;;;;;;;;;;;;;;;9.80;100.00;101521.41;5567752;32;34768;-74
2023/01/03 12:01:25;;;;;;;;;;;;;;;9.87;100.00;101520.75;5567677;32;34651;-75
2023/01/03 12:05:10;;;;;;;;;;;;;;;9.74;100.00;101516.62;5567007;32;33281;-74
2023/01/03 12:08:16;;;;;;;;;;;;;;;9.81;100.00;101512.47;5533968;31;34084;-73
2023/01/03 12:11:34;;;;;;;;;;;;;;;9.92;100.00;101515.03;5567741;32;34693;-74
2023/01/03 12:14:51;;;;;;;;;;;;;;;10.15;100.00;101508.50;5554060;32;35120;-73
2023/01/03 12:18:02;;;;;;;;;;;;;;;10.36;100.00;101511.91;5553899;32;34051;-74
2023/01/03 12:21:25;;;;;;;;;;;;;;;10.07;100.00;101504.87;5553849;32;33055;-74
2023/01/03 12:24:44;;;;;;;;;;;;;;;10.03;100.00;101509.59;5567946;32;34333;-73
2023/01/03 12:27:58;;;;;;;;;;;;;;;9.78;100.00;101510.12;5541032;32;34397;-75
2023/01/03 12:31:08;;;;;;;;;;;;;;;9.55;100.00;101507.66;5567755;32;34101;-74
2023/01/03 12:34:38;;;;;;;;;;;;;;;9.42;100.00;101495.63;5554403;32;34887;-74
2023/01/03 12:37:50;;;;;;;;;;;;;;;9.27;100.00;101496.94;5540576;32;33085;-73
2023/01/03 12:41:16;;;;;;;;;;;;;;;9.20;100.00;101495.81;5552246;32;34277;-74
2023/01/03 12:44:33;;;;;;;;;;;;;;;9.14;100.00;101500.66;5539116;32;33781;-74
2023/01/03 12:47:50;;;;;;;;;;;;;;;9.08;100.00;101501.16;5551821;32;33174;-74
2023/01/03 12:51:00;;;;;;;;;;;;;;;8.85;100.00;101493.50;5550470;32;32756;-74
2023/01/03 12:54:41;;;;;;;;;;;;;;;8.84;100.00;101495.31;5566089;32;34373;-74
2023/01/03 12:57:55;;;;;;;;;;;;;;;8.93;100.00;101497.16;5525413;32;32788;-74
2023/01/03 13:01:08;;;;;;;;;;;;;;;8.75;100.00;101505.81;5566976;32;34275;-73
2023/01/03 13:04:21;;;;;;;;;;;;;;;8.64;100.00;101504.91;5567158;32;34095;-73
2023/01/03 13:07:30;;;;;;;;;;;;;;;8.67;100.00;101501.16;5566651;32;35121;-73
2023/01/03 13:10:39;;;;;;;;;;;;;;;8.56;100.00;101496.78;5546180;32;33546;-73
2023/01/03 13:14:01;;;;;;;;;;;;;;;8.63;100.00;101500.56;5546094;32;33035;-73
2023/01/03 13:17:18;;;;;;;;;;;;;;;8.58;100.00;101501.94;5546098;32;33096;-72
2023/01/03 13:20:32;;;;;;;;;;;;;;;8.50;100.00;101501.72;5548616;32;33357;-73
2023/01/03 13:23:41;;;;;;;;;;;;;;;8.44;100.00;101503.06;5549751;32;33783;-74
2023/01/03 13:27:06;;;;;;;;;;;;;;;8.27;100.00;101506.25;5533620;32;32986;-73
2023/01/03 13:30:20;;;;;;;;;;;;;;;8.26;100.00;101505.41;5545739;32;34283;-73
2023/01/03 13:33:31;;;;;;;;;;;;;;;8.13;100.00;101507.34;5546956;32;34849;-73
2023/01/03 13:36:56;;;;;;;;;;;;;;;8.12;100.00;101510.12;5546809;32;34374;-72
2023/01/03 13:40:09;;;;;;;;;;;;;;;7.97;100.00;101500.78;5547018;32;34711;-72
2023/01/03 13:43:20;;;;;;;;;;;;;;;7.96;100.00;101513.16;5547012;32;34369;-72
2023/01/03 13:46:31;;;;;;;;;;;;;;;7.95;100.00;101511.47;5546166;32;34036;-73
2023/01/03 13:49:38;;;;;;;;;;;;;;;7.84;100.00;101508.88;5547366;32;34500;-73
2023/01/03 13:53:04;;;;;;;;;;;;;;;7.81;100.00;101509.94;5547247;32;34421;-72
2023/01/03 13:56:16;;;;;;;;;;;;;;;7.76;100.00;101512.13;5557003;32;34354;-73
2023/01/03 13:59:28;;;;;;;;;;;;;;;7.62;100.00;101508.88;5555428;32;34126;-73
2023/01/03 14:03:10;;;;;;;;;;;;;;;7.53;100.00;101506.97;5547992;32;34951;-72
2023/01/03 14:06:45;;;;;;;;;;;;;;;7.52;100.00;101506.12;5475418;32;34410;-74
2023/01/03 14:09:58;;;;;;;;;;;;;;;7.46;100.00;101516.31;5548444;32;34717;-73
2023/01/03 14:13:31;;;;;;;;;;;;;;;7.43;100.00;101512.97;5536137;32;34000;-73
2023/01/03 14:16:46;;;;;;;;;;;;;;;7.35;100.00;101512.75;5549184;32;33887;-73
2023/01/03 14:19:58;;;;;;;;;;;;;;;7.40;100.00;101513.22;5552552;32;34145;-73
2023/01/03 14:23:12;;;;;;;;;;;;;;;7.34;100.00;101515.50;5558373;32;33902;-73
2023/01/03 14:26:39;;;;;;;;;;;;;;;7.28;100.00;101531.81;5567089;32;34399;-73
2023/01/03 14:29:49;;;;;;;;;;;;;;;7.28;100.00;101521.25;5567619;32;32683;-73
2023/01/03 14:32:58;;;;;;;;;;;;;;;7.37;100.00;101531.09;5568163;32;34653;-75
2023/01/03 14:36:05;;;;;;;;;;;;;;;7.39;100.00;101535.31;5547378;32;33467;-73
2023/01/03 14:39:20;;;;;;;;;;;;;;;7.36;100.00;101543.44;5547967;32;33244;-73
2023/01/03 14:42:28;;;;;;;;;;;;;;;7.43;100.00;101551.75;5547923;32;33265;-73
2023/01/03 14:45:35;;;;;;;;;;;;;;;7.37;100.00;101539.00;5548726;32;35071;-73
2023/01/03 14:48:46;;;;;;;;;;;;;;;7.30;100.00;101543.94;5547952;32;34200;-73
2023/01/03 14:52:00;;;;;;;;;;;;;;;7.40;100.00;101544.06;5547792;32;35869;-73
2023/01/03 14:55:13;;;;;;;;;;;;;;;7.31;100.00;101547.44;5548636;32;34647;-73
2023/01/03 14:58:31;;;;;;;;;;;;;;;7.19;100.00;101540.44;5548098;32;34370;-72
2023/01/03 15:01:38;;;;;;;;;;;;;;;7.27;100.00;101556.50;5548889;32;34456;-74
2023/01/03 15:04:53;;;;;;;;;;;;;;;7.18;100.00;101552.78;5547842;32;34911;-73
2023/01/03 15:08:09;;;;;;;;;;;;;;;7.14;100.00;101546.06;5547078;32;34230;-73
2023/01/03 15:11:21;;;;;;;;;;;;;;;7.18;100.00;101557.22;5541508;32;34769;-74
2023/01/03 15:14:28;;;;;;;;;;;;;;;7.16;100.00;101553.88;5553858;32;35295;-72
2023/01/03 15:17:35;;;;;;;;;;;;;;;7.24;100.00;101552.31;5553506;32;33354;-73
2023/01/03 15:20:44;;;;;;;;;;;;;;;7.26;100.00;101553.03;5568060;32;33934;-73
2023/01/03 15:23:53;;;;;;;;;;;;;;;7.21;100.00;101557.00;5554190;32;34764;-73
2023/01/03 15:26:58;;;;;;;;;;;;;;;7.31;100.00;101564.06;5567697;32;34287;-73
2023/01/03 15:30:13;;;;;;;;;;;;;;;7.31;100.00;101568.53;5553261;32;34644;-73
2023/01/03 15:33:31;;;;;;;;;;;;;;;7.38;100.00;101577.66;5567396;32;34194;-72
2023/01/03 15:36:41;;;;;;;;;;;;;;;7.37;100.00;101579.44;5553464;32;33125;-74
2023/01/03 15:39:56;;;;;;;;;;;;;;;7.44;100.00;101577.19;5566076;32;34336;-73
2023/01/03 15:43:23;;;;;;;;;;;;;;;7.54;100.00;101590.53;5562479;31;34079;-73
2023/01/03 15:46:29;;;;;;;;;;;;;;;7.58;100.00;101587.53;5552488;32;34227;-73
2023/01/03 15:49:41;;;;;;;;;;;;;;;7.56;100.00;101585.94;5554390;32;34202;-73
2023/01/03 15:52:51;;;;;;;;;;;;;;;7.56;100.00;101594.72;5553819;32;33048;-74
2023/01/03 15:56:01;;;;;;;;;;;;;;;7.60;100.00;101604.06;5553836;32;34210;-73
2023/01/03 15:59:08;;;;;;;;;;;;;;;7.56;100.00;101591.22;5567426;32;34324;-73
2023/01/03 16:02:19;;;;;;;;;;;;;;;7.70;100.00;101597.13;5567636;32;34238;-73
2023/01/03 16:05:27;;;;;;;;;;;;;;;7.69;100.00;101594.62;5567793;32;34115;-73
2023/01/03 16:08:37;;;;;;;;;;;;;;;7.81;100.00;101599.78;5540998;32;33379;-74
2023/01/03 16:11:47;;;;;;;;;;;;;;;7.69;100.00;101605.19;5553392;32;33834;-73
2023/01/03 16:14:54;;;;;;;;;;;;;;;7.79;100.00;101603.50;5554059;32;34257;-74
2023/01/03 16:18:02;;;;;;;;;;;;;;;7.80;100.00;101621.00;5567802;32;34249;-73
2023/01/03 16:21:07;;;;;;;;;;;;;;;7.73;100.00;101618.03;5540579;32;35037;-72
2023/01/03 16:24:16;;;;;;;;;;;;;;;7.70;100.00;101617.41;5552527;32;33947;-73
2023/01/03 16:27:24;;;;;;;;;;;;;;;7.75;100.00;101609.97;5556373;32;34401;-73
2023/01/03 16:30:36;;;;;;;;;;;;;;;7.75;100.00;101607.31;5553806;32;34954;-73
2023/01/03 16:33:42;;;;;;;;;;;;;;;7.82;100.00;101616.47;5567420;32;35231;-73
2023/01/03 16:36:51;;;;;;;;;;;;;;;7.77;100.00;101623.91;5567262;32;33976;-73
2023/01/03 16:39:57;;;;;;;;;;;;;;;7.84;100.00;101619.84;5553414;32;35396;-73
2023/01/03 16:43:05;;;;;;;;;;;;;;;7.93;100.00;101621.75;5567262;32;34322;-73
2023/01/03 16:46:11;;;;;;;;;;;;;;;8.02;100.00;101630.75;5553780;32;33962;-72
2023/01/03 16:49:17;;;;;;;;;;;;;;;8.04;100.00;101628.81;5554158;32;34677;-74
2023/01/03 16:52:27;;;;;;;;;;;;;;;8.00;100.00;101624.75;5567301;32;34900;-73
2023/01/03 16:55:39;;;;;;;;;;;;;;;7.92;100.00;101629.78;5551260;32;33076;-74
2023/01/03 16:58:46;;;;;;;;;;;;;;;7.94;100.00;101622.59;5553321;32;34177;-74
2023/01/03 17:01:54;;;;;;;;;;;;;;;7.92;100.00;101635.91;5566645;32;34068;-74
2023/01/03 17:05:01;;;;;;;;;;;;;;;8.01;100.00;101637.00;5566654;32;34727;-74
2023/01/03 17:08:19;;;;;;;;;;;;;;;8.03;100.00;101640.37;5566387;32;34876;-72
2023/01/03 17:11:25;;;;;;;;;;;;;;;8.04;100.00;101640.22;5552122;32;34469;-73
2023/01/03 17:14:36;;;;;;;;;;;;;;;8.02;100.00;101644.81;5541644;32;33114;-73